Time;durP1;ratioP1;P1;durP2;ratioP2;P2;SDS_P1;SDS_P2;PMS_P1;PMS_P2;Temp;Humidity;BMP_temperature;BMP_pressure;BME280_temperature;BME280_humidity;BME280_pressure;Samples;Min_cycle;Max_cycle;Signal;HPM_P1;HPM_P2
2023/03/21 00:01:06;;;;;;;491.53;361.30;;;;;;;7.48;nan;98812.56;5026117;28;20300;-61
2023/03/21 00:03:33;;;;;;;488.20;306.17;;;;;;;7.50;nan;98813.41;5027238;28;20045;-61
2023/03/21 00:06:04;;;;;;;;;;;;;;;7.55;nan;98810.00;5024251;28;20296;-61
2023/03/21 00:08:30;;;;;;;;;;;;;;;7.61;nan;98809.09;5028600;28;19945;-61
2023/03/21 00:10:59;;;;;;;;;;;;;;;7.51;nan;98808.28;5027665;28;19944;-61
2023/03/21 00:13:27;;;;;;;365.13;157.00;;;;;;;7.56;nan;98813.38;5024097;28;20426;-61
2023/03/21 00:15:56;;;;;;;346.13;135.25;;;;;;;7.46;nan;98802.38;5027043;28;20122;-64
2023/03/21 00:18:24;;;;;;;111.73;103.97;;;;;;;7.44;nan;98804.06;5027787;28;20049;-62
2023/03/21 00:21:02;;;;;;;19.30;18.13;;;;;;;7.47;nan;98793.03;5027302;28;20358;-63
2023/03/21 00:23:30;;;;;;;15.52;14.80;;;;;;;7.40;nan;98781.13;5028172;28;20041;-62
2023/03/21 00:25:56;;;;;;;16.95;16.15;;;;;;;7.55;nan;98799.81;5026608;28;20108;-63
2023/03/21 00:28:22;;;;;;;14.38;13.70;;;;;;;7.56;nan;98777.66;5027288;28;20091;-62
2023/03/21 00:30:48;;;;;;;16.40;15.60;;;;;;;7.60;nan;98771.69;5028790;28;20118;-62
2023/03/21 00:33:14;;;;;;;;;;;;;;;7.75;nan;98795.44;5029660;28;19925;-62
2023/03/21 00:35:46;;;;;;;;;;;;;;;7.74;nan;98792.88;5028365;28;20220;-61
2023/03/21 00:38:12;;;;;;;;;;;;;;;7.72;nan;98792.06;5028449;28;19940;-62
2023/03/21 00:40:38;;;;;;;;;;;;;;;7.70;nan;98786.09;5029721;28;19928;-62
2023/03/21 00:43:03;;;;;;;;;;;;;;;7.66;nan;98780.19;5029872;28;20253;-61
2023/03/21 00:45:30;;;;;;;;;;;;;;;7.60;nan;98779.34;5028806;28;20390;-62
2023/03/21 00:47:56;;;;;;;;;;;;;;;7.58;nan;98778.50;5028527;28;19948;-61
2023/03/21 00:50:22;;;;;;;;;;;;;;;7.48;nan;98775.16;5020246;28;19929;-63
2023/03/21 00:52:47;;;;;;;;;;;;;;;7.41;nan;98770.09;5028702;28;19959;-62
2023/03/21 00:55:13;;;;;;;;;;;;;;;7.33;nan;98768.44;5025614;28;19978;-62
2023/03/21 00:57:39;;;;;;;;;;;;;;;7.25;nan;98771.88;5033433;28;20011;-61
2023/03/21 01:00:06;;;;;;;;;;;;;;;7.20;nan;98769.31;5028300;28;19943;-63
2023/03/21 01:02:32;;;;;;;;;;;;;;;7.12;nan;98768.50;5029172;28;19944;-62
2023/03/21 01:04:57;;;;;;;;;;;;;;;7.06;nan;98765.09;5028931;28;19932;-62
2023/03/21 01:07:23;;;;;;;;;;;;;;;7.00;nan;98770.25;5025383;28;20043;-61
2023/03/21 01:09:49;;;;;;;;;;;;;;;6.93;nan;98769.38;5009191;28;20225;-61
2023/03/21 01:12:17;;;;;;;;;;;;;;;6.88;nan;98766.00;5029062;28;20023;-62
2023/03/21 01:14:42;;;;;;;;;;;;;;;6.84;nan;98759.22;5028594;28;20704;-61
2023/03/21 01:17:08;;;;;;;;;;;;;;;6.77;nan;98760.09;5027925;28;19931;-62
2023/03/21 01:19:34;;;;;;;;;;;;;;;6.73;nan;98766.88;5029240;28;19931;-61
2023/03/21 01:22:00;;;;;;;;;;;;;;;6.70;nan;98753.31;5028243;28;20054;-61
2023/03/21 01:24:26;;;;;;;;;;;;;;;6.66;nan;98754.16;5033961;28;20298;-61
2023/03/21 01:26:51;;;;;;;;;;;;;;;6.61;nan;98751.63;5025841;28;19936;-61
2023/03/21 01:29:17;;;;;;;;;;;;;;;6.55;nan;98749.06;5028318;28;19968;-61
2023/03/21 01:31:42;;;;;;;;;;;;;;;6.58;nan;98750.75;5027764;28;19936;-61
2023/03/21 01:34:11;;;;;;;;;;;;;;;6.62;nan;98755.84;5030487;28;19994;-61
2023/03/21 01:36:37;;;;;;;;;;;;;;;6.63;nan;98757.56;5033677;28;19925;-62
2023/03/21 01:39:06;;;;;;;;;;;;;;;6.64;nan;98753.31;5034930;28;19925;-62
2023/03/21 01:41:33;;;;;;;;;;;;;;;6.66;nan;98743.97;5032588;28;20938;-61
2023/03/21 01:43:59;;;;;;;;;;;;;;;6.66;nan;98746.53;5030034;28;20427;-62
2023/03/21 01:46:40;;;;;;;;;;;;;;;6.59;nan;98747.38;5028424;28;20291;-65
2023/03/21 01:49:24;;;;;;;;;;;;;;;6.52;nan;98745.69;5032023;28;19932;-62
2023/03/21 01:52:01;;;;;;;;;;;;;;;6.50;nan;98737.19;5038405;28;19947;-61
2023/03/21 01:54:31;;;;;;;;;;;;;;;6.52;nan;98736.34;5035446;28;19978;-61
2023/03/21 01:56:58;;;;;;;;;;;;;;;6.61;nan;98745.69;5030708;28;20390;-61
2023/03/21 01:59:28;;;;;;;;;;;;;;;6.59;nan;98739.72;5038760;28;19964;-62
2023/03/21 02:02:16;;;;;;;;;;;;;;;6.52;nan;98738.03;5031631;28;20121;-61
2023/03/21 02:04:56;;;;;;;;;;;;;;;6.47;nan;98743.16;5032556;28;19929;-62
2023/03/21 02:07:36;;;;;;;;;;;;;;;6.42;nan;98739.75;5033558;28;19936;-62
2023/03/21 02:10:06;;;;;;;;;;;;;;;6.39;nan;98743.16;5031885;28;19929;-62
2023/03/21 02:12:32;;;;;;;;;;;;;;;6.35;nan;98743.16;5030557;28;19961;-63
2023/03/21 02:14:58;;;;;;;;;;;;;;;6.29;nan;98748.25;5037243;28;19929;-64
2023/03/21 02:17:39;;;;;;;;;;;;;;;6.30;nan;98742.31;5039148;28;19924;-63
2023/03/21 02:20:15;;;;;;;;;;;;;;;6.25;nan;98736.34;5038772;28;19979;-61
2023/03/21 02:22:57;;;;;;;;;;;;;;;6.21;nan;98742.31;5027257;28;19925;-60
2023/03/21 02:25:53;;;;;;;32.35;30.77;;;;;;;6.24;nan;98745.69;5030015;28;21043;-61
2023/03/21 02:28:25;;;;;;;125.18;118.85;;;;;;;6.22;nan;98741.47;5034609;28;20060;-61
2023/03/21 02:31:20;;;;;;;44.65;41.95;;;;;;;6.24;nan;98750.78;5037265;28;20053;-61
2023/03/21 02:33:53;;;;;;;15.77;14.90;;;;;;;6.35;nan;98738.06;4973032;28;20069;-60
2023/03/21 02:36:58;;;;;;;29.88;27.95;;;;;;;6.23;nan;98744.03;4987856;28;20054;-60
2023/03/21 02:39:45;;;;;;;12.20;11.63;;;;;;;6.30;nan;98745.69;4957600;28;20116;-60
2023/03/21 02:42:39;;;;;;;12.98;12.40;;;;;;;6.46;nan;98738.91;4971826;28;20568;-61
2023/03/21 02:45:20;;;;;;;13.75;13.15;;;;;;;6.61;nan;98736.34;4973549;28;20064;-61
2023/03/21 02:48:03;;;;;;;12.93;12.35;;;;;;;6.63;nan;98737.16;4971232;28;20079;-62
2023/03/21 02:50:47;;;;;;;25.08;23.65;;;;;;;6.38;nan;98703.25;4981245;28;20920;-62
2023/03/21 02:53:19;;;;;;;13.57;12.82;;;;;;;6.50;nan;98727.84;4978488;28;20561;-63
2023/03/21 02:55:46;;;;;;;12.15;11.57;;;;;;;6.39;nan;98729.56;4971823;28;20052;-61
2023/03/21 02:58:17;;;;;;;12.30;11.73;;;;;;;6.29;nan;98720.22;4964114;28;20049;-62
2023/03/21 03:00:54;;;;;;;13.40;12.65;;;;;;;6.31;nan;98733.81;4975060;28;20498;-62
2023/03/21 03:03:42;;;;;;;12.07;11.52;;;;;;;6.26;nan;98725.34;4988409;28;20041;-63
2023/03/21 03:06:18;;;;;;;22.17;21.10;;;;;;;6.23;nan;98732.97;4987398;28;20112;-62
2023/03/21 03:08:59;;;;;;;23.42;22.30;;;;;;;6.11;nan;98713.44;4987965;28;20077;-62
2023/03/21 03:11:55;;;;;;;24.40;23.25;;;;;;;6.20;nan;98717.69;5021055;28;20072;-63
2023/03/21 03:14:33;;;;;;;80.68;73.80;;;;;;;6.16;nan;98726.19;5024318;28;20172;-63
2023/03/21 03:17:26;;;;;;;14.80;13.30;;;;;;;6.12;nan;98717.69;5030599;28;20060;-63
2023/03/21 03:19:58;;;;;;;90.07;84.60;;;;;;;6.12;nan;98727.88;5027088;28;20375;-62
2023/03/21 03:22:39;;;;;;;34.27;32.10;;;;;;;6.02;nan;98710.94;5033243;28;20441;-64
2023/03/21 03:25:14;;;;;;;21.80;20.58;;;;;;;6.12;nan;98722.78;5030742;28;20294;-63
2023/03/21 03:27:42;;;;;;;24.90;23.33;;;;;;;6.12;nan;98729.56;5028832;28;20160;-64
2023/03/21 03:30:10;;;;;;;19.65;18.58;;;;;;;6.12;nan;98724.47;5029738;28;20041;-63
2023/03/21 03:32:47;;;;;;;77.37;71.50;;;;;;;6.01;nan;98710.91;5032216;28;20037;-63
2023/03/21 03:35:17;;;;;;;25.98;24.60;;;;;;;6.11;nan;98725.34;5031823;28;20292;-64
2023/03/21 03:37:53;;;;;;;30.93;28.93;;;;;;;6.09;nan;98727.88;5043912;28;20127;-62
2023/03/21 03:40:22;;;;;;;35.17;32.80;;;;;;;6.06;nan;98734.69;5029225;28;20799;-64
2023/03/21 03:43:04;;;;;;;38.60;35.70;;;;;;;6.06;nan;98732.97;5044933;28;20045;-64
2023/03/21 03:45:48;;;;;;;45.78;43.28;;;;;;;6.05;nan;98738.91;5037324;28;20284;-63
2023/03/21 03:48:24;;;;;;;18.17;17.08;;;;;;;5.96;nan;98731.25;5038221;28;20048;-63
2023/03/21 03:51:01;;;;;;;46.50;43.75;;;;;;;5.99;nan;98738.91;5033307;28;20084;-62
2023/03/21 03:53:45;;;;;;;17.88;16.65;;;;;;;5.99;nan;98728.72;5027641;28;20500;-62
2023/03/21 03:56:12;;;;;;;20.00;18.90;;;;;;;5.83;nan;98699.84;5018408;28;20040;-62
2023/03/21 03:58:41;;;;;;;20.40;19.38;;;;;;;5.95;nan;98722.78;5019253;28;20060;-62
2023/03/21 04:01:06;;;;;;;46.67;43.45;;;;;;;6.09;nan;98732.97;5025447;28;20071;-60
2023/03/21 04:03:34;;;;;;;32.53;28.33;;;;;;;6.13;nan;98721.09;5026476;28;20468;-60
2023/03/21 04:06:00;;;;;;;15.60;13.77;;;;;;;6.32;nan;98722.81;5034288;28;20044;-61
2023/03/21 04:08:26;;;;;;;24.03;22.63;;;;;;;6.28;nan;98727.03;5025660;28;20909;-59
2023/03/21 04:10:55;;;;;;;19.98;18.55;;;;;;;6.27;nan;98725.34;4999693;28;20148;-60
2023/03/21 04:13:21;;;;;;;12.95;12.05;;;;;;;6.23;nan;98713.47;5027808;28;20343;-62
2023/03/21 04:16:01;;;;;;;39.80;37.27;;;;;;;6.33;nan;98724.47;5032798;28;20091;-62
2023/03/21 04:18:27;;;;;;;25.43;23.30;;;;;;;6.19;nan;98726.19;5024908;28;20350;-62
2023/03/21 04:20:53;;;;;;;;;;;;;;;6.29;nan;98738.06;5026656;28;20386;-61
2023/03/21 04:23:19;;;;;;;;;;;;;;;6.21;nan;98732.97;5024346;28;19932;-62
2023/03/21 04:25:45;;;;;;;;;;;;;;;6.21;nan;98735.50;5019199;28;19955;-61
2023/03/21 04:28:11;;;;;;;;;;;;;;;6.17;nan;98741.47;5033083;28;20296;-59
2023/03/21 04:30:41;;;;;;;;;;;;;;;6.12;nan;98739.75;5024786;28;20400;-60
2023/03/21 04:33:12;;;;;;;;;;;;;;;6.11;nan;98738.91;5031922;28;20282;-60
2023/03/21 04:35:44;;;;;;;;;;;;;;;6.12;nan;98738.06;5026731;28;19929;-61
2023/03/21 04:38:11;;;;;;;;;;;;;;;6.12;nan;98740.59;5025744;28;19925;-60
2023/03/21 04:40:37;;;;;;;;;;;;;;;6.11;nan;98733.00;5032530;28;20248;-60
2023/03/21 04:43:03;;;;;;;;;;;;;;;6.15;nan;98745.72;5023423;28;20019;-61
2023/03/21 04:45:28;;;;;;;;;;;;;;;6.19;nan;98741.47;5026099;28;20513;-61
2023/03/21 04:47:55;;;;;;;;;;;;;;;6.32;nan;98746.53;5025179;28;21383;-60
2023/03/21 04:50:21;;;;;;;;;;;;;;;6.37;nan;98739.75;5026099;28;20059;-61
2023/03/21 04:52:47;;;;;;;;;;;;;;;6.38;nan;98733.81;5028883;28;19928;-61
2023/03/21 04:55:13;;;;;;;;;;;;;;;6.37;nan;98737.19;5034152;28;19936;-60
2023/03/21 04:57:38;;;;;;;;;;;;;;;6.41;nan;98735.50;5023856;28;19929;-61
2023/03/21 05:00:09;;;;;;;;;;;;;;;6.38;nan;98740.59;5024838;28;20560;-61
2023/03/21 05:02:35;;;;;;;;;;;;;;;6.32;nan;98738.91;5015144;28;19932;-61
2023/03/21 05:05:01;;;;;;;;;;;;;;;6.30;nan;98747.41;5021972;28;19953;-61
2023/03/21 05:07:26;;;;;;;;;;;;;;;6.29;nan;98745.69;5024474;28;19961;-62
2023/03/21 05:09:53;;;;;;;;;;;;;;;6.26;nan;98751.66;5032027;28;20074;-61
2023/03/21 05:12:19;;;;;;;;;;;;;;;6.26;nan;98751.66;5025891;28;20418;-61
2023/03/21 05:14:45;;;;;;;;;;;;;;;6.29;nan;98754.19;5027754;28;19929;-61
2023/03/21 05:17:14;;;;;;;;;;;;;;;6.32;nan;98756.72;5028062;28;20937;-61
2023/03/21 05:19:40;;;;;;;;;;;;;;;6.37;nan;98759.25;5037243;28;19940;-61
2023/03/21 05:22:08;;;;;;;;;;;;;;;6.37;nan;98757.56;5028571;28;19928;-61
2023/03/21 05:24:36;;;;;;;;;;;;;;;6.40;nan;98757.59;5029356;28;20047;-62
2023/03/21 05:27:02;;;;;;;;;;;;;;;6.42;nan;98755.88;5028423;28;19925;-60
2023/03/21 05:29:30;;;;;;;;;;;;;;;6.46;nan;98759.25;5035542;28;19952;-61
2023/03/21 05:32:00;;;;;;;;;;;;;;;6.47;nan;98763.53;5034722;28;19991;-62
2023/03/21 05:34:26;;;;;;;;;;;;;;;6.49;nan;98754.19;5032455;28;20025;-61
2023/03/21 05:36:52;;;;;;;;;;;;;;;6.48;nan;98756.72;5031175;28;19944;-61
2023/03/21 05:39:19;;;;;;;;;;;;;;;6.47;nan;98757.56;5037673;28;20036;-61
2023/03/21 05:41:56;;;;;;;;;;;;;;;6.52;nan;98761.81;5038559;28;19929;-63
2023/03/21 05:44:22;;;;;;;;;;;;;;;6.67;nan;98760.94;5030825;28;20495;-61
2023/03/21 05:46:48;;;;;;;;;;;;;;;6.77;nan;98760.94;5027330;28;19932;-62
2023/03/21 05:49:14;;;;;;;;;;;;;;;6.88;nan;98760.91;5030146;28;20028;-61
2023/03/21 05:51:41;;;;;;;;;;;;;;;6.97;nan;98767.69;5035453;28;20455;-63
2023/03/21 05:54:06;;;;;;;;;;;;;;;7.13;nan;98766.81;5033919;28;20359;-62
2023/03/21 05:56:33;;;;;;;;;;;;;;;7.19;nan;98764.22;5029375;28;19936;-62
2023/03/21 05:59:04;;;;;;;;;;;;;;;7.24;nan;98772.69;5031797;28;19925;-61
2023/03/21 06:01:33;;;;;;;;;;;;;;;7.25;nan;98762.50;5028172;28;20620;-61
2023/03/21 06:04:07;;;;;;;;;;;;;;;7.33;nan;98765.88;5032571;28;19933;-60
2023/03/21 06:06:33;;;;;;;;;;;;;;;7.43;nan;98765.81;5029401;28;20292;-64
2023/03/21 06:09:00;;;;;;;;;;;;;;;7.48;nan;98774.28;5017909;28;20189;-61
2023/03/21 06:11:28;;;;;;;;;;;;;;;7.58;nan;98770.88;5017197;28;19975;-61
2023/03/21 06:14:17;;;;;;;;;;;;;;;7.59;nan;98770.00;4976273;28;19930;-61
2023/03/21 06:16:48;;;;;;;;;;;;;;;7.66;nan;98775.06;4961084;28;20802;-60
2023/03/21 06:19:13;;;;;;;;;;;;;;;7.66;nan;98776.78;4975854;28;20135;-61
2023/03/21 06:21:49;;;;;;;;;;;;;;;7.64;nan;98771.66;4976309;28;20369;-61
2023/03/21 06:24:16;;;;;;;;;;;;;;;7.69;nan;98779.31;4963142;28;19965;-60
2023/03/21 06:26:42;;;;;;;;;;;;;;;7.67;nan;98784.44;4963144;28;20394;-60
2023/03/21 06:29:09;;;;;;;;;;;;;;;7.76;nan;98775.88;4978696;28;20658;-61
2023/03/21 06:31:34;;;;;;;;;;;;;;;7.82;nan;98781.78;4979323;28;19933;-60
2023/03/21 06:34:02;;;;;;;374.70;205.35;;;;;;;8.00;nan;98778.28;4975813;28;20418;-60
2023/03/21 06:36:28;;;;;;;34.77;32.63;;;;;;;8.16;nan;98769.66;4962137;28;20057;-61
2023/03/21 06:38:54;;;;;;;38.47;34.97;;;;;;;8.34;nan;98766.16;4978421;28;20333;-60
2023/03/21 06:41:20;;;;;;;29.57;27.33;;;;;;;8.59;nan;98772.75;4977911;28;20665;-61
2023/03/21 06:43:56;;;;;;;119.83;111.67;;;;;;;8.69;nan;98771.81;4947797;28;20054;-61
2023/03/21 06:46:22;;;;;;;34.67;31.53;;;;;;;9.02;nan;98772.31;4976617;28;20754;-60
2023/03/21 06:48:48;;;;;;;27.93;25.97;;;;;;;9.39;nan;98782.97;4958598;28;20058;-61
2023/03/21 06:51:14;;;;;;;35.37;33.77;;;;;;;9.71;nan;98767.25;4987867;28;20148;-61
2023/03/21 06:53:50;;;;;;;16.20;15.27;;;;;;;10.08;nan;98784.63;5025236;28;20045;-61
2023/03/21 06:56:28;;;;;;;23.90;22.73;;;;;;;10.46;nan;98767.84;5030282;28;20330;-60
2023/03/21 06:58:53;;;;;;;28.00;26.47;;;;;;;10.76;nan;98776.75;5040282;28;20300;-61
2023/03/21 07:01:48;;;;;;;18.87;17.67;;;;;;;10.86;nan;98773.16;5033812;28;20345;-61
2023/03/21 07:04:14;;;;;;;27.27;25.83;;;;;;;11.10;nan;98766.72;5028178;28;20654;-60
2023/03/21 07:06:39;;;;;;;21.07;19.77;;;;;;;11.06;nan;98749.69;5016622;28;20457;-60
2023/03/21 07:09:06;;;;;;;30.50;29.03;;;;;;;11.21;nan;98763.06;5024382;28;20052;-60
2023/03/21 07:11:34;;;;;;;26.60;25.33;;;;;;;11.36;nan;98764.50;5025508;28;20041;-60
2023/03/21 07:14:00;;;;;;;39.93;37.43;;;;;;;11.56;nan;98761.50;5025234;28;20300;-60
2023/03/21 07:16:26;;;;;;;22.30;20.87;;;;;;;11.60;nan;98763.97;5027435;28;20793;-59
2023/03/21 07:18:52;;;;;;;46.57;44.23;;;;;;;11.66;nan;98768.16;5029658;28;20037;-60
2023/03/21 07:21:17;;;;;;;62.23;59.37;;;;;;;11.95;nan;98754.69;5028124;28;20405;-61
2023/03/21 07:23:43;;;;;;;43.07;41.17;;;;;;;12.08;nan;98766.41;5029367;28;20526;-61
2023/03/21 07:26:09;;;;;;;16.27;15.43;;;;;;;12.06;nan;98760.44;5027323;28;20048;-62
2023/03/21 07:28:35;;;;;;;126.27;121.43;;;;;;;12.16;nan;98770.47;5026573;28;20395;-61
2023/03/21 07:31:03;;;;;;;46.23;44.27;;;;;;;12.08;nan;98756.97;5026000;28;20045;-61
2023/03/21 07:33:30;;;;;;;56.77;54.33;;;;;;;12.35;nan;98771.72;5027228;28;20507;-61
2023/03/21 07:35:59;;;;;;;36.53;34.90;;;;;;;12.44;nan;98770.66;5034390;28;20299;-62
2023/03/21 07:38:26;;;;;;;27.10;25.87;;;;;;;12.77;nan;98764.66;5035225;28;20411;-61
2023/03/21 07:40:52;;;;;;;98.87;94.17;;;;;;;12.72;nan;98757.97;5024022;28;20620;-61
2023/03/21 07:43:18;;;;;;;50.87;48.47;;;;;;;12.65;nan;98759.84;5026574;28;20792;-61
2023/03/21 07:45:44;;;;;;;26.50;25.30;;;;;;;12.43;nan;98751.00;5027694;28;20765;-61
2023/03/21 07:48:11;;;;;;;62.97;60.03;;;;;;;12.31;nan;98754.69;5029566;28;20283;-61
2023/03/21 07:50:39;;;;;;;120.30;114.80;;;;;;;12.28;nan;98767.63;5026381;28;20771;-62
2023/03/21 07:53:06;;;;;;;23.07;21.67;;;;;;;12.57;nan;98761.75;5024633;28;20714;-61
2023/03/21 07:55:33;;;;;;;37.43;35.80;;;;;;;12.54;nan;98754.13;5025163;28;20304;-63
2023/03/21 07:58:01;;;;;;;28.63;27.03;;;;;;;12.66;nan;98760.69;5029454;28;20312;-62
2023/03/21 08:00:27;;;;;;;32.80;31.00;;;;;;;12.71;nan;98749.41;5027374;28;20268;-63
2023/03/21 08:02:54;;;;;;;33.03;31.20;;;;;;;13.09;nan;98760.41;5028043;28;20315;-61
2023/03/21 08:05:26;;;;;;;54.90;52.30;;;;;;;12.99;nan;98739.22;5024767;28;20175;-63
2023/03/21 08:07:52;;;;;;;26.30;24.80;;;;;;;13.16;nan;98741.38;5027104;28;20311;-62
2023/03/21 08:10:18;;;;;;;23.47;21.93;;;;;;;13.17;nan;98763.66;5027564;28;20291;-62
2023/03/21 08:12:45;;;;;;;28.67;27.57;;;;;;;13.46;nan;98752.53;5029039;28;20044;-61
2023/03/21 08:15:12;;;;;;;17.63;16.80;;;;;;;13.65;nan;98761.44;5027165;28;20091;-62
2023/03/21 08:17:39;;;;;;;23.10;22.00;;;;;;;13.57;nan;98735.91;5025909;28;20280;-61
2023/03/21 08:20:07;;;;;;;34.10;32.33;;;;;;;13.62;nan;98764.94;5024570;28;20314;-61
2023/03/21 08:22:34;;;;;;;18.57;17.37;;;;;;;13.48;nan;98751.63;5025535;28;20392;-62
2023/03/21 08:25:02;;;;;;;29.70;28.20;;;;;;;13.35;nan;98746.84;5023749;28;20272;-62
2023/03/21 08:27:28;;;;;;;22.27;21.10;;;;;;;13.31;nan;98761.56;5026609;28;20899;-62
2023/03/21 08:29:54;;;;;;;28.23;26.73;;;;;;;13.38;nan;98759.63;5027531;28;20292;-61
2023/03/21 08:32:24;;;;;;;29.87;28.13;;;;;;;13.26;nan;98753.09;5026474;28;20430;-60
2023/03/21 08:34:51;;;;;;;24.33;23.17;;;;;;;13.37;nan;98751.06;5025896;28;20048;-61
2023/03/21 08:37:16;;;;;;;21.53;20.47;;;;;;;13.31;nan;98753.84;5027242;28;20719;-60
2023/03/21 08:39:42;;;;;;;31.47;29.80;;;;;;;13.26;nan;98753.09;5025072;28;20323;-61
2023/03/21 08:42:08;;;;;;;29.33;27.63;;;;;;;13.20;nan;98748.97;5019538;28;20661;-61
2023/03/21 08:44:33;;;;;;;29.53;28.03;;;;;;;13.12;nan;98739.75;5024457;28;20162;-60
2023/03/21 08:46:59;;;;;;;66.37;63.27;;;;;;;13.15;nan;98740.53;5024315;28;20056;-61
2023/03/21 08:49:25;;;;;;;23.27;22.17;;;;;;;13.33;nan;98757.19;5027502;28;20135;-61
2023/03/21 08:51:55;;;;;;;23.30;20.90;;;;;;;13.35;nan;98750.28;5027497;28;20584;-61
2023/03/21 08:54:21;;;;;;;25.87;24.63;;;;;;;13.55;nan;98750.56;5027722;28;20326;-61
2023/03/21 08:56:47;;;;;;;19.37;18.37;;;;;;;13.64;nan;98760.59;5027950;28;20287;-61
2023/03/21 08:59:14;;;;;;;19.93;18.63;;;;;;;13.72;nan;98750.06;5029606;28;20833;-62
2023/03/21 09:01:40;;;;;;;22.63;21.33;;;;;;;13.99;nan;98750.97;5030838;28;20169;-62
2023/03/21 09:04:09;;;;;;;24.53;23.17;;;;;;;14.07;nan;98742.09;5027222;28;20413;-61
2023/03/21 09:06:36;;;;;;;23.83;22.53;;;;;;;14.21;nan;98738.25;5026837;28;20296;-61
2023/03/21 09:09:04;;;;;;;25.63;24.33;;;;;;;14.35;nan;98723.16;5024653;28;20307;-60
2023/03/21 09:11:30;;;;;;;29.20;27.60;;;;;;;14.28;nan;98726.84;5024886;28;20311;-63
2023/03/21 09:13:56;;;;;;;26.13;24.87;;;;;;;14.55;nan;98742.28;5025159;28;20304;-60
2023/03/21 09:16:23;;;;;;;22.73;21.63;;;;;;;14.74;nan;98741.66;5023558;28;20079;-61
2023/03/21 09:18:54;;;;;;;20.33;19.30;;;;;;;14.56;nan;98735.38;5026382;28;20033;-61
2023/03/21 09:21:21;;;;;;;18.77;17.67;;;;;;;14.49;nan;98733.91;5031917;28;20357;-61
2023/03/21 09:23:51;;;;;;;24.87;23.70;;;;;;;14.79;nan;98724.28;5028014;28;20655;-62
2023/03/21 09:26:18;;;;;;;24.50;23.33;;;;;;;15.06;nan;98733.66;5026067;28;20331;-61
2023/03/21 09:28:47;;;;;;;28.27;26.97;;;;;;;14.80;nan;98720.81;5027639;28;20295;-61
2023/03/21 09:31:15;;;;;;;26.47;25.17;;;;;;;14.45;nan;98725.44;5034015;28;20292;-61
2023/03/21 09:33:42;;;;;;;20.40;19.40;;;;;;;14.14;nan;98724.69;5027954;28;20303;-62
2023/03/21 09:36:17;;;;;;;26.00;24.77;;;;;;;14.05;nan;98730.97;5028327;28;20469;-66
2023/03/21 09:38:44;;;;;;;35.27;33.53;;;;;;;14.02;nan;98730.25;5028502;28;20289;-63
2023/03/21 09:41:22;;;;;;;19.33;18.33;;;;;;;13.94;nan;98729.63;5026854;28;20337;-62
2023/03/21 09:44:13;;;;;;;19.77;18.70;;;;;;;13.97;nan;98729.53;5027433;28;20779;-62
2023/03/21 09:46:53;;;;;;;19.10;18.13;;;;;;;13.91;nan;98722.84;5025914;28;20349;-62
2023/03/21 09:49:29;;;;;;;18.33;17.40;;;;;;;13.96;nan;98708.06;5025777;28;20766;-62
2023/03/21 09:51:58;;;;;;;16.50;15.63;;;;;;;13.90;nan;98720.31;5033187;28;20652;-61
2023/03/21 09:54:32;;;;;;;28.33;26.90;;;;;;;13.97;nan;98725.22;5027823;28;20296;-62
2023/03/21 09:57:05;;;;;;;20.03;19.03;;;;;;;13.85;nan;98712.72;5036859;28;20295;-62
2023/03/21 09:59:38;;;;;;;21.13;20.07;;;;;;;13.86;nan;98709.25;5038534;28;20532;-63
2023/03/21 10:02:31;;;;;;;19.17;18.17;;;;;;;13.93;nan;98721.06;5029635;28;20771;-62
2023/03/21 10:04:59;;;;;;;19.90;18.90;;;;;;;13.89;nan;98708.31;5030458;28;20369;-62
2023/03/21 10:07:29;;;;;;;18.97;18.03;;;;;;;14.18;nan;98713.38;5030175;28;20382;-62
2023/03/21 10:09:58;;;;;;;21.03;19.97;;;;;;;14.17;nan;98706.56;5030472;28;20374;-61
2023/03/21 10:12:29;;;;;;;21.27;20.27;;;;;;;14.37;nan;98703.34;5030779;28;20338;-61
2023/03/21 10:14:57;;;;;;;21.60;20.50;;;;;;;14.66;nan;98704.94;5031520;28;20326;-62
2023/03/21 10:17:26;;;;;;;21.80;20.73;;;;;;;14.92;nan;98692.00;5031335;28;20365;-62
2023/03/21 10:20:12;;;;;;;21.67;20.60;;;;;;;14.90;nan;98693.78;5028689;28;20338;-62
2023/03/21 10:22:38;;;;;;;214.20;92.80;;;;;;;14.86;nan;98684.44;5027229;28;20369;-64
2023/03/21 10:25:06;;;;;;;31.57;30.03;;;;;;;14.80;nan;98695.00;5029378;28;20775;-63
2023/03/21 10:27:35;;;;;;;38.40;36.17;;;;;;;14.72;nan;98697.00;5029332;28;20367;-63
2023/03/21 10:30:04;;;;;;;70.88;55.70;;;;;;;14.68;nan;98691.13;5029192;28;20299;-62
2023/03/21 10:32:30;;;;;;;37.53;35.77;;;;;;;14.53;nan;98677.00;5029104;28;20094;-65
2023/03/21 10:34:57;;;;;;;55.17;52.53;;;;;;;14.49;nan;98690.03;5029432;28;20288;-62
2023/03/21 10:37:24;;;;;;;26.70;25.30;;;;;;;14.64;nan;98695.53;5026736;28;20371;-60
2023/03/21 10:39:53;;;;;;;37.67;35.87;;;;;;;15.06;nan;98682.84;5026534;28;20365;-61
2023/03/21 10:42:23;;;;;;;34.97;33.33;;;;;;;15.21;nan;98670.28;5028604;28;20811;-61
2023/03/21 10:44:51;;;;;;;58.07;55.37;;;;;;;15.29;nan;98676.00;5026485;28;20288;-61
2023/03/21 10:47:29;;;;;;;26.37;25.07;;;;;;;14.99;nan;98660.72;5029178;28;20862;-61
2023/03/21 10:50:11;;;;;;;29.07;27.70;;;;;;;14.99;nan;98675.38;5028186;28;20289;-60
2023/03/21 10:52:46;;;;;;;21.73;20.63;;;;;;;15.14;nan;98674.84;5028987;28;20651;-61
2023/03/21 10:55:15;;;;;;;24.55;23.48;;;;;;;15.40;nan;98676.47;5025062;28;20284;-61
2023/03/21 10:57:41;;;;;;;20.10;19.17;;;;;;;15.80;nan;98660.28;5029520;28;20037;-62
2023/03/21 11:00:17;;;;;;;21.10;20.10;;;;;;;15.77;nan;98650.06;5027511;28;20303;-61
2023/03/21 11:02:48;;;;;;;33.17;31.67;;;;;;;16.18;nan;98661.31;5025722;28;20152;-60
2023/03/21 11:05:39;;;;;;;44.90;42.37;;;;;;;15.83;nan;98665.31;5025816;28;20283;-61
2023/03/21 11:08:11;;;;;;;25.70;24.23;;;;;;;15.90;nan;98659.00;5026924;28;20296;-60
2023/03/21 11:11:04;;;;;;;24.67;23.40;;;;;;;15.82;nan;98667.09;5037616;28;20467;-61
2023/03/21 11:13:40;;;;;;;23.17;21.97;;;;;;;15.92;nan;98650.28;5025529;28;20303;-60
2023/03/21 11:16:09;;;;;;;22.13;20.77;;;;;;;16.14;nan;98642.50;5026322;28;20299;-61
2023/03/21 11:18:43;;;;;;;25.37;24.07;;;;;;;16.39;nan;98650.91;5025074;28;20609;-60
2023/03/21 11:21:11;;;;;;;22.73;21.53;;;;;;;16.06;nan;98648.88;5026444;28;20303;-61
2023/03/21 11:23:46;;;;;;;22.47;21.43;;;;;;;15.70;nan;98644.28;5028013;28;20299;-61
2023/03/21 11:26:23;;;;;;;;;;;;;;;15.86;nan;98654.88;5026504;28;20299;-60
2023/03/21 11:28:52;;;;;;;22.47;21.30;;;;;;;15.88;nan;98653.03;5028069;28;20117;-60
2023/03/21 11:31:18;;;;;;;24.67;23.40;;;;;;;15.74;nan;98651.00;5029607;28;20601;-61
2023/03/21 11:33:52;;;;;;;311.03;221.50;;;;;;;15.74;nan;98624.34;5028067;28;20280;-60
2023/03/21 11:36:17;;;;;;;44.77;42.17;;;;;;;15.77;nan;98643.16;5027640;28;20052;-61
2023/03/21 11:38:49;;;;;;;17.47;16.40;;;;;;;15.68;nan;98633.16;5037372;28;20349;-59
2023/03/21 11:41:34;;;;;;;19.03;17.83;;;;;;;15.89;nan;98629.72;5029822;28;20052;-61
2023/03/21 11:44:01;;;;;;;32.60;30.65;;;;;;;16.18;nan;98630.28;5027534;28;20037;-61
2023/03/21 11:46:30;;;;;;;39.00;36.83;;;;;;;16.10;nan;98622.84;5029498;28;20117;-59
2023/03/21 11:48:57;;;;;;;27.03;25.33;;;;;;;16.33;nan;98627.91;5029757;28;20033;-61
2023/03/21 11:52:17;;;;;;;308.90;195.67;;;;;;;15.94;nan;98616.63;5029185;28;20063;-61
2023/03/21 11:54:58;;;;;;;427.27;295.80;;;;;;;16.31;nan;98613.34;4974190;28;20385;-61
2023/03/21 11:57:50;;;;;;;588.73;530.07;;;;;;;16.48;nan;98615.19;4976038;28;20784;-61
2023/03/21 12:00:21;;;;;;;445.57;338.33;;;;;;;16.44;nan;98609.31;4969554;28;20872;-61
2023/03/21 12:02:53;;;;;;;425.57;303.20;;;;;;;16.60;nan;98597.41;4975732;28;20380;-60
2023/03/21 12:05:34;;;;;;;346.00;304.00;;;;;;;16.45;nan;98590.31;4975781;28;20672;-61
2023/03/21 12:08:11;;;;;;;458.53;405.40;;;;;;;16.69;nan;98597.03;4975848;28;20397;-61
2023/03/21 12:10:49;;;;;;;457.40;396.40;;;;;;;16.80;nan;98581.03;4974692;28;20313;-61
2023/03/21 12:13:45;;;;;;;440.13;311.40;;;;;;;16.59;nan;98594.91;4972055;28;20302;-61
2023/03/21 12:16:42;;;;;;;323.10;276.48;;;;;;;16.89;nan;98590.94;4974582;28;20408;-61
2023/03/21 12:19:42;;;;;;;470.97;414.77;;;;;;;16.67;nan;98570.38;4977846;28;20089;-60
2023/03/21 12:22:29;;;;;;;19.73;18.30;;;;;;;16.58;nan;98590.66;4964561;28;20440;-60
2023/03/21 12:24:59;;;;;;;51.13;48.50;;;;;;;16.73;nan;98577.84;4994152;28;20049;-61